Time;durP1;ratioP1;P1;durP2;ratioP2;P2;SDS_P1;SDS_P2;PMS_P1;PMS_P2;Temp;Humidity;BMP_temperature;BMP_pressure;BME280_temperature;BME280_humidity;BME280_pressure;Samples;Min_cycle;Max_cycle;Signal;HPM_P1;HPM_P2
2022/08/23 00:01:47;;;;;;;;;;;;;;;;;;6237407;23;20695;-84
2022/08/23 00:07:03;;;;;;;;;;;;;;;;;;6161766;23;20005;-84
2022/08/23 00:09:32;;;;;;;;;;;;;;;;;;6173282;23;20174;-84
2022/08/23 00:12:19;;;;;;;;;;;;;;;;;;6203259;23;20251;-85
2022/08/23 00:14:45;;;;;;;;;;;;;;;;;;6173747;23;19924;-84
2022/08/23 00:17:13;;;;;;;;;;;;;;;;;;6202686;23;19919;-84
2022/08/23 00:19:56;;;;;;;;;;;;;;;;;;6140711;23;19917;-84
2022/08/23 00:22:23;;;;;;;;;;;;;;;;;;6090474;23;19991;-84
2022/08/23 00:24:58;;;;;;;;;;;;;;;;;;6118703;23;19924;-84
2022/08/23 00:27:24;;;;;;;;;;;;;;;;;;6145064;23;19952;-85
2022/08/23 00:29:58;;;;;;;;;;;;;;;;;;6123335;23;19979;-84
2022/08/23 00:35:13;;;;;;;;;;;;;;;;;;6137741;23;20308;-84
2022/08/23 00:37:39;;;;;;;;;;;;;;;;;;6114890;23;20427;-84
2022/08/23 00:40:06;;;;;;;;;;;;;;;;;;6143997;23;19948;-84
2022/08/23 00:48:08;;;;;;;;;;;;;;;;;;6143252;23;19987;-84
2022/08/23 00:50:43;;;;;;;;;;;;;;;;;;6178137;22;19925;-84
2022/08/23 00:53:12;;;;;;;;;;;;;;;;;;6234605;22;19919;-84
2022/08/23 00:56:06;;;;;;;;;;;;;;;;;;;;;
2022/08/23 01:01:48;;;;;;;;;;;;;;;;;;6271311;22;19918;-84
2022/08/23 01:14:00;;;;;;;;;;;;;;;;;;6178685;23;20019;-85
2022/08/23 01:16:32;;;;;;;;;;;;;;;;;;6230096;22;19911;-91
2022/08/23 01:18:58;;;;;;;;;;;;;;;;;;6237969;22;20391;-90
2022/08/23 01:21:24;;;;;;;;;;;;;;;;;;6237609;22;19991;-91
2022/08/23 01:23:51;;;;;;;;;;;;;;;;;;6234907;22;20339;-91
2022/08/23 01:26:19;;;;;;;;;;;;;;;;;;6237468;22;19998;-90
2022/08/23 01:28:45;;;;;;;;;;;;;;;;;;6233151;22;19930;-90
2022/08/23 01:31:12;;;;;;;;;;;;;;;;;;6235088;22;19915;-91
2022/08/23 01:33:41;;;;;;;;;;;;;;;;;;6254880;22;19963;-90
2022/08/23 01:36:08;;;;;;;;;;;;;;;;;;6233795;22;19919;-91
2022/08/23 01:38:36;;;;;;;;;;;;;;;;;;6230943;22;19919;-91
2022/08/23 01:41:05;;;;;;;;;;;;;;;;;;6263911;22;19930;-91
2022/08/23 01:43:34;;;;;;;;;;;;;;;;;;6234439;22;19923;-91
2022/08/23 01:46:02;;;;;;;;;;;;;;;;;;6235901;22;19919;-90
2022/08/23 01:48:29;;;;;;;;;;;;;;;;;;6233641;22;20263;-91
2022/08/23 01:50:56;;;;;;;;;;;;;;;;;;6240345;22;19916;-90
2022/08/23 01:53:22;;;;;;;;;;;;;;;;;;6221117;22;20819;-91
2022/08/23 01:56:02;;;;;;;;;;;;;;;;;;6262985;22;19993;-91
2022/08/23 01:58:29;;;;;;;;;;;;;;;;;;6233020;22;19923;-91
2022/08/23 02:00:56;;;;;;;;;;;;;;;;;;6265698;22;19915;-92
2022/08/23 02:03:38;;;;;;;;;;;;;;;;;;6262257;22;20429;-92
2022/08/23 02:06:05;;;;;;;;;;;;;;;;;;6213402;22;19946;-91
2022/08/23 02:11:23;;;;;;;;;;;;;;;;;;6238477;22;19973;-91
2022/08/23 02:13:50;;;;;;;;;;;;;;;;;;6237567;22;19915;-91
2022/08/23 02:16:16;;;;;;;;;;;;;;;;;;6213212;22;19919;-91
2022/08/23 02:18:43;;;;;;;;;;;;;;;;;;6210660;22;20351;-91
2022/08/23 02:21:10;;;;;;;;;;;;;;;;;;6238895;22;19998;-90
2022/08/23 02:23:37;;;;;;;;;;;;;;;;;;6211423;22;19923;-91
2022/08/23 02:26:05;;;;;;;;;;;;;;;;;;6238600;22;19922;-90
2022/08/23 02:28:33;;;;;;;;;;;;;;;;;;6236486;22;19916;-91
2022/08/23 02:31:00;;;;;;;;;;;;;;;;;;6213877;22;19927;-91
2022/08/23 02:33:28;;;;;;;;;;;;;;;;;;6262379;22;19919;-91
2022/08/23 02:35:55;;;;;;;;;;;;;;;;;;6212877;22;19990;-91
2022/08/23 02:38:22;;;;;;;;;;;;;;;;;;6213197;22;20012;-91
2022/08/23 02:40:49;;;;;;;;;;;;;;;;;;6235422;22;20446;-92
2022/08/23 02:43:17;;;;;;;;;;;;;;;;;;6238133;22;20021;-91
2022/08/23 02:45:45;;;;;;;;;;;;;;;;;;6237564;22;19922;-92
2022/08/23 02:48:11;;;;;;;;;;;;;;;;;;6214382;22;19915;-92
2022/08/23 02:50:38;;;;;;;;;;;;;;;;;;6213291;22;19919;-92
2022/08/23 02:53:04;;;;;;;;;;;;;;;;;;6240238;22;19923;-92
2022/08/23 02:55:31;;;;;;;;;;;;;;;;;;6239455;22;20358;-92
2022/08/23 02:57:58;;;;;;;;;;;;;;;;;;6240658;22;19919;-91
2022/08/23 03:00:24;;;;;;;;;;;;;;;;;;6213903;22;19915;-91
2022/08/23 03:02:57;;;;;;;;;;;;;;;;;;6263864;22;20291;-92
2022/08/23 03:05:25;;;;;;;;;;;;;;;;;;6264978;22;19915;-91
2022/08/23 03:07:51;;;;;;;;;;;;;;;;;;6268053;22;19916;-91
2022/08/23 03:10:18;;;;;;;;;;;;;;;;;;6239988;22;20022;-91
2022/08/23 03:12:46;;;;;;;;;;;;;;;;;;6238061;22;19919;-92
2022/08/23 03:15:11;;;;;;;;;;;;;;;;;;6239850;22;19915;-91
2022/08/23 03:17:39;;;;;;;;;;;;;;;;;;6206837;23;19939;-92
2022/08/23 03:20:24;;;;;;;;;;;;;;;;;;6235405;23;20002;-90
2022/08/23 03:22:50;;;;;;;;;;;;;;;;;;6210034;23;19944;-91
2022/08/23 03:25:16;;;;;;;;;;;;;;;;;;6235488;23;20030;-91
2022/08/23 03:27:42;;;;;;;;;;;;;;;;;;6207874;23;19922;-91
2022/08/23 03:30:10;;;;;;;;;;;;;;;;;;6235814;23;19930;-91
2022/08/23 03:32:37;;;;;;;;;;;;;;;;;;6208840;23;19922;-92
2022/08/23 03:35:05;;;;;;;;;;;;;;;;;;6235223;23;19969;-91
2022/08/23 03:37:34;;;;;;;;;;;;;;;;;;6246763;22;19954;-91
2022/08/23 03:40:00;;;;;;;;;;;;;;;;;;6227918;23;19920;-90
2022/08/23 03:42:27;;;;;;;;;;;;;;;;;;6249388;23;19931;-92
2022/08/23 03:44:53;;;;;;;;;;;;;;;;;;6211963;23;20331;-91
2022/08/23 03:47:21;;;;;;;;;;;;;;;;;;6210572;23;19977;-91
2022/08/23 03:49:48;;;;;;;;;;;;;;;;;;6244316;23;19900;-90
2022/08/23 03:52:17;;;;;;;;;;;;;;;;;;6254337;23;19922;-90
2022/08/23 03:54:44;;;;;;;;;;;;;;;;;;6224981;23;19915;-82
2022/08/23 03:57:12;;;;;;;;;;;;;;;;;;6235156;23;19915;-82
2022/08/23 03:59:39;;;;;;;;;;;;;;;;;;6231116;22;19923;-83
2022/08/23 04:02:05;;;;;;;;;;;;;;;;;;6235319;23;19919;-83
2022/08/23 04:04:31;;;;;;;;;;;;;;;;;;6235584;23;19941;-83
2022/08/23 04:06:58;;;;;;;;;;;;;;;;;;6234992;23;19915;-82
2022/08/23 04:09:25;;;;;;;;;;;;;;;;;;6235741;23;19921;-82
2022/08/23 04:11:54;;;;;;;;;;;;;;;;;;6235349;22;19920;-82
2022/08/23 04:14:35;;;;;;;;;;;;;;;;;;6198945;23;20007;-83
2022/08/23 04:17:02;;;;;;;;;;;;;;;;;;6201708;23;19959;-82
2022/08/23 04:19:30;;;;;;;;;;;;;;;;;;6199090;23;20516;-83
2022/08/23 04:22:00;;;;;;;;;;;;;;;;;;6201433;23;19947;-83
2022/08/23 04:24:27;;;;;;;;;;;;;;;;;;6172145;23;20016;-83
2022/08/23 04:26:55;;;;;;;;;;;;;;;;;;6178267;23;19916;-83
2022/08/23 04:29:21;;;;;;;;;;;;;;;;;;6205702;23;19916;-83
2022/08/23 04:31:48;;;;;;;;;;;;;;;;;;6202075;23;20609;-83
2022/08/23 04:34:15;;;;;;;;;;;;;;;;;;6205252;23;20349;-82
2022/08/23 04:36:42;;;;;;;;;;;;;;;;;;6202636;23;19916;-82
2022/08/23 04:39:10;;;;;;;;;;;;;;;;;;6154683;23;19926;-82
2022/08/23 04:44:20;;;;;;;;;;;;;;;;;;6204753;23;19955;-82
2022/08/23 04:46:47;;;;;;;;;;;;;;;;;;6232090;23;20546;-82
2022/08/23 04:49:14;;;;;;;;;;;;;;;;;;6234684;22;19923;-82
2022/08/23 04:51:42;;;;;;;;;;;;;;;;;;6232331;22;19951;-82
2022/08/23 04:54:08;;;;;;;;;;;;;;;;;;6231178;23;19994;-81
2022/08/23 04:56:35;;;;;;;;;;;;;;;;;;6233047;23;20020;-81
2022/08/23 04:59:02;;;;;;;;;;;;;;;;;;6233754;23;19920;-82
2022/08/23 05:01:30;;;;;;;;;;;;;;;;;;6226954;23;19920;-82
2022/08/23 05:03:56;;;;;;;;;;;;;;;;;;6234413;22;20125;-91
2022/08/23 05:06:23;;;;;;;;;;;;;;;;;;6210947;23;19924;-92
2022/08/23 05:08:49;;;;;;;;;;;;;;;;;;6208934;23;19915;-91
2022/08/23 05:11:20;;;;;;;;;;;;;;;;;;6236324;23;19922;-91
2022/08/23 05:13:56;;;;;;;;;;;;;;;;;;6236420;23;19959;-92
2022/08/23 05:16:24;;;;;;;;;;;;;;;;;;6213061;22;19987;-92
2022/08/23 05:19:01;;;;;;;;;;;;;;;;;;6269937;22;19919;-92
2022/08/23 05:21:29;;;;;;;;;;;;;;;;;;6239298;22;19919;-91
2022/08/23 05:23:56;;;;;;;;;;;;;;;;;;6215813;22;19923;-92
2022/08/23 05:26:22;;;;;;;;;;;;;;;;;;6215120;22;19924;-91
2022/08/23 05:28:55;;;;;;;;;;;;;;;;;;6217881;22;19923;-91
2022/08/23 05:31:23;;;;;;;;;;;;;;;;;;6217527;22;20316;-91
2022/08/23 05:33:49;;;;;;;;;;;;;;;;;;6214653;22;19925;-92
2022/08/23 05:36:17;;;;;;;;;;;;;;;;;;6216264;22;19990;-91
2022/08/23 05:38:45;;;;;;;;;;;;;;;;;;6239508;22;20548;-92
2022/08/23 05:41:12;;;;;;;;;;;;;;;;;;6266094;22;20312;-91
2022/08/23 05:43:39;;;;;;;;;;;;;;;;;;6237425;22;19930;-92
2022/08/23 05:46:26;;;;;;;;;;;;;;;;;;6207221;23;20373;-91
2022/08/23 05:48:53;;;;;;;;;;;;;;;;;;6182198;23;19986;-92
2022/08/23 05:51:21;;;;;;;;;;;;;;;;;;6207049;23;20438;-92
2022/08/23 05:53:48;;;;;;;;;;;;;;;;;;6206460;23;19973;-91
2022/08/23 05:56:16;;;;;;;;;;;;;;;;;;6231234;23;20318;-91
2022/08/23 05:58:43;;;;;;;;;;;;;;;;;;6204643;23;19919;-91
2022/08/23 06:01:10;;;;;;;;;;;;;;;;;;6207937;23;19923;-91
2022/08/23 06:03:38;;;;;;;;;;;;;;;;;;6206806;23;19927;-92
2022/08/23 06:06:27;;;;;;;;;;;;;;;;;;6178306;23;19920;-92
2022/08/23 06:08:55;;;;;;;;;;;;;;;;;;6154313;23;20340;-91
2022/08/23 06:11:21;;;;;;;;;;;;;;;;;;6154237;23;20277;-91
2022/08/23 06:13:48;;;;;;;;;;;;;;;;;;6174970;23;20016;-91
2022/08/23 06:16:15;;;;;;;;;;;;;;;;;;6202741;23;19919;-92
2022/08/23 06:18:43;;;;;;;;;;;;;;;;;;6151398;23;19969;-91
2022/08/23 06:21:10;;;;;;;;;;;;;;;;;;6155082;23;19952;-92
2022/08/23 06:23:37;;;;;;;;;;;;;;;;;;6153905;23;19931;-91
2022/08/23 06:26:04;;;;;;;;;;;;;;;;;;6179075;23;19920;-91
2022/08/23 06:28:32;;;;;;;;;;;;;;;;;;6150954;23;20552;-92
2022/08/23 06:30:58;;;;;;;;;;;;;;;;;;6178732;23;20049;-91
2022/08/23 06:33:26;;;;;;;;;;;;;;;;;;6201588;23;20646;-91
2022/08/23 06:35:59;;;;;;;;;;;;;;;;;;6177258;23;19942;-92
2022/08/23 06:38:25;;;;;;;;;;;;;;;;;;6175000;23;19916;-92
2022/08/23 06:40:51;;;;;;;;;;;;;;;;;;6175578;23;19920;-91
2022/08/23 06:43:18;;;;;;;;;;;;;;;;;;6176091;23;19931;-91
2022/08/23 06:45:45;;;;;;;;;;;;;;;;;;6173776;23;19967;-91
2022/08/23 06:48:12;;;;;;;;;;;;;;;;;;6177238;23;20284;-91
2022/08/23 06:50:39;;;;;;;;;;;;;;;;;;6171774;23;19994;-90
2022/08/23 06:53:05;;;;;;;;;;;;;;;;;;6176430;23;20295;-91
2022/08/23 06:55:31;;;;;;;;;;;;;;;;;;6149434;23;19992;-92
2022/08/23 06:57:58;;;;;;;;;;;;;;;;;;6207662;23;20321;-91
2022/08/23 07:00:24;;;;;;;;;;;;;;;;;;6231543;23;19935;-92
2022/08/23 07:03:05;;;;;;;;;;;;;;;;;;6173200;23;19928;-91
2022/08/23 07:05:32;;;;;;;;;;;;;;;;;;6146141;23;19924;-92
2022/08/23 07:07:59;;;;;;;;;;;;;;;;;;6126478;23;20003;-92
2022/08/23 07:10:26;;;;;;;;;;;;;;;;;;6123129;23;19927;-92
2022/08/23 07:12:54;;;;;;;;;;;;;;;;;;6173654;23;19917;-91
2022/08/23 07:15:35;;;;;;;;;;;;;;;;;;6081418;23;19957;-92
2022/08/23 07:18:02;;;;;;;;;;;;;;;;;;6074040;23;20361;-92
2022/08/23 07:20:28;;;;;;;;;;;;;;;;;;6059581;23;20303;-84
2022/08/23 07:23:01;;;;;;;;;;;;;;;;;;6088223;23;19921;-84
2022/08/23 07:25:28;;;;;;;;;;;;;;;;;;6084910;23;19921;-85
2022/08/23 07:27:55;;;;;;;;;;;;;;;;;;6086757;23;19991;-85
2022/08/23 07:30:22;;;;;;;;;;;;;;;;;;6109722;23;19992;-85
2022/08/23 07:32:50;;;;;;;;;;;;;;;;;;6086349;23;19917;-84
2022/08/23 07:35:15;;;;;;;;;;;;;;;;;;6149916;23;19920;-85
2022/08/23 07:37:43;;;;;;;;;;;;;;;;;;6202836;23;19923;-84
2022/08/23 07:40:10;;;;;;;;;;;;;;;;;;6178034;23;19923;-85
2022/08/23 07:42:37;;;;;;;;;;;;;;;;;;6172975;23;20416;-85
2022/08/23 07:45:03;;;;;;;;;;;;;;;;;;6151062;23;20415;-84
2022/08/23 07:47:31;;;;;;;;;;;;;;;;;;6202660;22;19927;-85
2022/08/23 07:49:58;;;;;;;;;;;;;;;;;;6215237;22;19965;-85
2022/08/23 07:52:24;;;;;;;;;;;;;;;;;;6267018;22;19955;-85
2022/08/23 07:54:56;;;;;;;;;;;;;;;;;;6240776;22;19965;-85
2022/08/23 07:57:24;;;;;;;;;;;;;;;;;;6214209;22;20259;-85
2022/08/23 07:59:53;;;;;;;;;;;;;;;;;;6265222;22;19922;-84
2022/08/23 08:02:21;;;;;;;;;;;;;;;;;;6215268;22;19931;-85
2022/08/23 08:04:49;;;;;;;;;;;;;;;;;;6236747;22;20279;-85
2022/08/23 08:07:15;;;;;;;;;;;;;;;;;;6214792;22;19919;-85
2022/08/23 08:09:41;;;;;;;;;;;;;;;;;;6238150;22;19919;-85
2022/08/23 08:12:07;;;;;;;;;;;;;;;;;;6213536;22;19996;-84
2022/08/23 08:14:33;;;;;;;;;;;;;;;;;;6234635;22;19932;-85
2022/08/23 08:16:59;;;;;;;;;;;;;;;;;;6208762;22;19919;-85
2022/08/23 08:19:28;;;;;;;;;;;;;;;;;;6233439;22;19945;-85
2022/08/23 08:21:54;;;;;;;;;;;;;;;;;;6213916;22;19916;-85
2022/08/23 08:24:20;;;;;;;;;;;;;;;;;;6214520;22;19915;-84
2022/08/23 08:26:49;;;;;;;;;;;;;;;;;;6208645;22;19955;-85
2022/08/23 08:29:15;;;;;;;;;;;;;;;;;;6212844;22;20268;-85
2022/08/23 08:31:41;;;;;;;;;;;;;;;;;;6236436;22;19926;-85
2022/08/23 08:34:07;;;;;;;;;;;;;;;;;;6213500;22;20012;-85
2022/08/23 08:36:34;;;;;;;;;;;;;;;;;;6211199;22;19919;-85
2022/08/23 08:39:00;;;;;;;;;;;;;;;;;;6214543;22;19919;-85
2022/08/23 08:41:27;;;;;;;;;;;;;;;;;;6222082;22;20475;-85
2022/08/23 08:43:53;;;;;;;;;;;;;;;;;;6265486;22;19930;-85
2022/08/23 08:46:19;;;;;;;;;;;;;;;;;;6261246;22;19919;-85
2022/08/23 08:48:45;;;;;;;;;;;;;;;;;;6233678;22;19926;-85
2022/08/23 08:51:11;;;;;;;;;;;;;;;;;;6209600;22;19915;-86
2022/08/23 08:53:38;;;;;;;;;;;;;;;;;;6208254;22;19923;-85
2022/08/23 08:56:04;;;;;;;;;;;;;;;;;;6240558;22;20407;-85
2022/08/23 08:58:30;;;;;;;;;;;;;;;;;;6236967;22;19919;-85
2022/08/23 09:00:57;;;;;;;;;;;;;;;;;;6212585;22;19967;-85
2022/08/23 09:03:23;;;;;;;;;;;;;;;;;;6211538;22;19972;-85
2022/08/23 09:05:49;;;;;;;;;;;;;;;;;;6211980;22;20243;-86
2022/08/23 09:08:15;;;;;;;;;;;;;;;;;;6236853;22;19962;-85
2022/08/23 09:10:41;;;;;;;;;;;;;;;;;;6210450;22;20397;-85
2022/08/23 09:13:07;;;;;;;;;;;;;;;;;;6235996;22;19965;-85
2022/08/23 09:15:33;;;;;;;;;;;;;;;;;;6209866;22;19942;-86
2022/08/23 09:17:59;;;;;;;;;;;;;;;;;;6232376;23;19927;-85
2022/08/23 09:20:27;;;;;;;;;;;;;;;;;;6232332;23;19978;-85
2022/08/23 09:22:56;;;;;;;;;;;;;;;;;;6233147;23;19930;-85
2022/08/23 09:25:23;;;;;;;;;;;;;;;;;;6208410;23;19919;-85
2022/08/23 09:27:49;;;;;;;;;;;;;;;;;;6230027;23;19925;-85
2022/08/23 09:30:15;;;;;;;;;;;;;;;;;;6207886;23;19915;-85
2022/08/23 09:32:42;;;;;;;;;;;;;;;;;;6205407;23;19926;-86
2022/08/23 09:35:10;;;;;;;;;;;;;;;;;;6233505;23;19920;-85
2022/08/23 09:37:35;;;;;;;;;;;;;;;;;;6230351;23;19916;-85
2022/08/23 09:40:01;;;;;;;;;;;;;;;;;;6233990;23;20002;-85
2022/08/23 09:42:28;;;;;;;;;;;;;;;;;;6204365;23;20279;-85
2022/08/23 09:44:56;;;;;;;;;;;;;;;;;;6232762;23;19926;-85
2022/08/23 09:47:22;;;;;;;;;;;;;;;;;;6233356;22;19965;-85
2022/08/23 09:49:50;;;;;;;;;;;;;;;;;;6205695;23;19994;-85
2022/08/23 09:52:16;;;;;;;;;;;;;;;;;;6207243;23;19919;-85
2022/08/23 09:54:42;;;;;;;;;;;;;;;;;;6203126;23;20489;-85
2022/08/23 09:57:09;;;;;;;;;;;;;;;;;;6232959;23;19931;-85
2022/08/23 09:59:35;;;;;;;;;;;;;;;;;;6226294;23;20320;-85
2022/08/23 10:02:01;;;;;;;;;;;;;;;;;;6229177;23;19923;-85
2022/08/23 10:04:26;;;;;;;;;;;;;;;;;;6232722;23;19923;-85
2022/08/23 10:06:52;;;;;;;;;;;;;;;;;;6207909;23;20332;-85
2022/08/23 10:09:19;;;;;;;;;;;;;;;;;;6234716;23;19916;-85
2022/08/23 10:11:45;;;;;;;;;;;;;;;;;;6229101;23;19919;-85
2022/08/23 10:14:11;;;;;;;;;;;;;;;;;;6208065;23;19970;-86
2022/08/23 10:16:37;;;;;;;;;;;;;;;;;;6204430;23;20430;-85
2022/08/23 10:19:03;;;;;;;;;;;;;;;;;;6207796;23;19923;-85
2022/08/23 10:21:29;;;;;;;;;;;;;;;;;;6205350;23;19916;-85
2022/08/23 10:23:55;;;;;;;;;;;;;;;;;;6230304;23;20018;-85
2022/08/23 10:26:21;;;;;;;;;;;;;;;;;;6231869;23;19919;-85
2022/08/23 10:31:32;;;;;;;;;;;;;;;;;;6231072;23;19915;-85
2022/08/23 10:33:58;;;;;;;;;;;;;;;;;;6230694;23;19993;-85
2022/08/23 10:36:24;;;;;;;;;;;;;;;;;;6231165;23;20245;-86
2022/08/23 10:38:50;;;;;;;;;;;;;;;;;;6207852;23;19942;-85
2022/08/23 10:41:16;;;;;;;;;;;;;;;;;;6232364;23;19919;-85
2022/08/23 10:43:42;;;;;;;;;;;;;;;;;;6229168;23;19926;-85
2022/08/23 10:46:08;;;;;;;;;;;;;;;;;;6205708;23;20368;-85
2022/08/23 10:48:34;;;;;;;;;;;;;;;;;;6229734;23;19919;-85
2022/08/23 10:51:00;;;;;;;;;;;;;;;;;;6207490;23;20244;-86
2022/08/23 10:53:26;;;;;;;;;;;;;;;;;;6230014;23;20342;-85
2022/08/23 10:56:01;;;;;;;;;;;;;;;;;;6205131;23;19990;-85
2022/08/23 10:58:27;;;;;;;;;;;;;;;;;;6226808;23;20367;-85
2022/08/23 11:00:53;;;;;;;;;;;;;;;;;;6229665;23;19990;-84
2022/08/23 11:03:22;;;;;;;;;;;;;;;;;;6230423;23;19927;-84
2022/08/23 11:05:49;;;;;;;;;;;;;;;;;;6206279;23;19923;-85
2022/08/23 11:08:15;;;;;;;;;;;;;;;;;;6234946;23;19920;-84
2022/08/23 11:10:41;;;;;;;;;;;;;;;;;;6231676;23;19916;-85
2022/08/23 11:13:06;;;;;;;;;;;;;;;;;;6207002;23;19919;-85
2022/08/23 11:15:32;;;;;;;;;;;;;;;;;;6203225;23;19920;-84
2022/08/23 11:17:58;;;;;;;;;;;;;;;;;;6232678;23;19923;-84
2022/08/23 11:20:24;;;;;;;;;;;;;;;;;;6207957;23;20248;-84
2022/08/23 11:22:50;;;;;;;;;;;;;;;;;;6207949;23;19926;-85
2022/08/23 11:25:19;;;;;;;;;;;;;;;;;;6231854;23;19924;-85
2022/08/23 11:27:45;;;;;;;;;;;;;;;;;;6230858;23;20360;-84
2022/08/23 11:30:11;;;;;;;;;;;;;;;;;;6234388;23;19915;-84
2022/08/23 11:32:37;;;;;;;;;;;;;;;;;;6200766;23;20331;-85
2022/08/23 11:35:04;;;;;;;;;;;;;;;;;;6208630;23;19920;-85
2022/08/23 11:37:32;;;;;;;;;;;;;;;;;;6207350;23;19919;-85
2022/08/23 11:39:58;;;;;;;;;;;;;;;;;;6235833;23;19923;-85
2022/08/23 11:42:24;;;;;;;;;;;;;;;;;;6230737;23;20336;-85
2022/08/23 11:44:56;;;;;;;;;;;;;;;;;;6206512;23;20367;-85
2022/08/23 11:47:22;;;;;;;;;;;;;;;;;;6233160;23;19923;-84
2022/08/23 11:49:48;;;;;;;;;;;;;;;;;;6206404;23;19919;-85
2022/08/23 11:52:14;;;;;;;;;;;;;;;;;;6229509;23;19915;-85
2022/08/23 11:54:40;;;;;;;;;;;;;;;;;;6203983;23;20230;-85
2022/08/23 11:57:06;;;;;;;;;;;;;;;;;;6207682;23;20397;-85
2022/08/23 11:59:33;;;;;;;;;;;;;;;;;;6206344;23;19919;-85
2022/08/23 12:01:59;;;;;;;;;;;;;;;;;;6233501;23;20308;-85
2022/08/23 12:04:25;;;;;;;;;;;;;;;;;;6228601;23;19962;-85
2022/08/23 12:06:54;;;;;;;;;;;;;;;;;;6206785;23;19919;-85
2022/08/23 12:09:21;;;;;;;;;;;;;;;;;;6231330;23;20268;-86
2022/08/23 12:11:47;;;;;;;;;;;;;;;;;;6229173;23;20380;-84
2022/08/23 12:14:13;;;;;;;;;;;;;;;;;;6230923;23;19958;-85
2022/08/23 12:16:39;;;;;;;;;;;;;;;;;;6226349;23;19927;-85
2022/08/23 12:19:05;;;;;;;;;;;;;;;;;;6228411;23;19924;-85
2022/08/23 12:21:32;;;;;;;;;;;;;;;;;;6205576;23;19970;-85
2022/08/23 12:23:57;;;;;;;;;;;;;;;;;;6206007;23;19935;-85
2022/08/23 12:26:27;;;;;;;;;;;;;;;;;;6204963;23;19920;-85
2022/08/23 12:28:53;;;;;;;;;;;;;;;;;;6204088;23;19916;-85
2022/08/23 12:31:18;;;;;;;;;;;;;;;;;;6229072;23;19916;-84
2022/08/23 12:33:47;;;;;;;;;;;;;;;;;;6229999;23;20307;-85
2022/08/23 12:36:13;;;;;;;;;;;;;;;;;;6230968;23;20369;-85
2022/08/23 12:38:39;;;;;;;;;;;;;;;;;;6229466;23;19970;-85
2022/08/23 12:41:05;;;;;;;;;;;;;;;;;;6205578;23;19926;-85
2022/08/23 12:43:31;;;;;;;;;;;;;;;;;;6227237;23;20382;-85
2022/08/23 12:45:57;;;;;;;;;;;;;;;;;;6229812;23;20401;-85
2022/08/23 12:48:23;;;;;;;;;;;;;;;;;;6228243;23;19923;-85
2022/08/23 12:50:49;;;;;;;;;;;;;;;;;;6227843;23;19919;-85
2022/08/23 12:53:15;;;;;;;;;;;;;;;;;;6231221;23;19942;-85
2022/08/23 12:55:41;;;;;;;;;;;;;;;;;;6228212;23;19916;-85
2022/08/23 12:58:07;;;;;;;;;;;;;;;;;;6232599;23;20345;-85
2022/08/23 13:00:33;;;;;;;;;;;;;;;;;;6228843;23;19946;-85
2022/08/23 13:02:58;;;;;;;;;;;;;;;;;;6230988;23;20006;-85
2022/08/23 13:05:24;;;;;;;;;;;;;;;;;;6205034;23;19994;-85
2022/08/23 13:07:50;;;;;;;;;;;;;;;;;;6205905;23;20241;-85
2022/08/23 13:10:16;;;;;;;;;;;;;;;;;;6207268;23;19919;-85
2022/08/23 13:12:42;;;;;;;;;;;;;;;;;;6205708;23;19919;-85
2022/08/23 13:15:08;;;;;;;;;;;;;;;;;;6207365;23;19920;-85
2022/08/23 13:17:38;;;;;;;;;;;;;;;;;;6227888;23;20384;-85
2022/08/23 13:20:04;;;;;;;;;;;;;;;;;;6231268;23;19929;-85
2022/08/23 13:22:30;;;;;;;;;;;;;;;;;;6227381;23;20014;-85
2022/08/23 13:24:56;;;;;;;;;;;;;;;;;;6231883;23;19927;-85
2022/08/23 13:27:22;;;;;;;;;;;;;;;;;;6233391;23;20293;-85
2022/08/23 13:29:48;;;;;;;;;;;;;;;;;;6229365;23;19920;-85
2022/08/23 13:32:14;;;;;;;;;;;;;;;;;;6234473;23;19954;-85
2022/08/23 13:34:40;;;;;;;;;;;;;;;;;;6231044;23;20391;-84
2022/08/23 13:37:06;;;;;;;;;;;;;;;;;;6233567;23;19919;-85
2022/08/23 13:39:32;;;;;;;;;;;;;;;;;;6229582;23;20227;-84
2022/08/23 13:41:58;;;;;;;;;;;;;;;;;;6229935;23;19924;-85
2022/08/23 13:44:24;;;;;;;;;;;;;;;;;;6229089;23;20329;-85
2022/08/23 13:46:50;;;;;;;;;;;;;;;;;;6228790;23;19955;-84
2022/08/23 13:49:16;;;;;;;;;;;;;;;;;;6231107;23;19943;-85
2022/08/23 13:51:42;;;;;;;;;;;;;;;;;;6226701;23;19966;-85
2022/08/23 13:54:08;;;;;;;;;;;;;;;;;;6230267;22;19919;-85
2022/08/23 13:56:34;;;;;;;;;;;;;;;;;;6226417;23;20490;-85
2022/08/23 13:59:00;;;;;;;;;;;;;;;;;;6230504;23;19987;-84
2022/08/23 14:01:26;;;;;;;;;;;;;;;;;;6226640;23;20376;-84
2022/08/23 14:03:52;;;;;;;;;;;;;;;;;;6231812;23;19926;-85
2022/08/23 14:06:17;;;;;;;;;;;;;;;;;;6231490;23;19923;-85
2022/08/23 14:08:43;;;;;;;;;;;;;;;;;;6227675;23;20336;-84
2022/08/23 14:11:09;;;;;;;;;;;;;;;;;;6203669;23;20059;-85
2022/08/23 14:13:36;;;;;;;;;;;;;;;;;;6227913;23;19919;-85
2022/08/23 14:16:02;;;;;;;;;;;;;;;;;;6231198;23;19930;-85
2022/08/23 14:18:28;;;;;;;;;;;;;;;;;;6202410;23;19927;-84
2022/08/23 14:20:55;;;;;;;;;;;;;;;;;;6205249;23;19915;-85
2022/08/23 14:23:21;;;;;;;;;;;;;;;;;;6233200;22;19930;-85
2022/08/23 14:25:47;;;;;;;;;;;;;;;;;;6228520;23;19987;-85
2022/08/23 14:28:13;;;;;;;;;;;;;;;;;;6229844;23;19926;-85
2022/08/23 14:30:39;;;;;;;;;;;;;;;;;;6229355;23;19923;-85
2022/08/23 14:33:05;;;;;;;;;;;;;;;;;;6234465;23;19945;-85
2022/08/23 14:35:31;;;;;;;;;;;;;;;;;;6234042;22;19922;-85
2022/08/23 14:37:57;;;;;;;;;;;;;;;;;;6231143;23;20264;-86
2022/08/23 14:40:22;;;;;;;;;;;;;;;;;;6231755;23;19923;-85
2022/08/23 14:42:48;;;;;;;;;;;;;;;;;;6231283;23;19930;-85
2022/08/23 14:45:14;;;;;;;;;;;;;;;;;;6234991;23;19990;-85
2022/08/23 14:47:40;;;;;;;;;;;;;;;;;;6228655;23;19922;-85
2022/08/23 14:50:06;;;;;;;;;;;;;;;;;;6233255;23;20348;-85
2022/08/23 14:52:32;;;;;;;;;;;;;;;;;;6228834;23;20416;-85
2022/08/23 14:55:01;;;;;;;;;;;;;;;;;;6232453;23;20000;-85
2022/08/23 14:57:27;;;;;;;;;;;;;;;;;;6228304;23;19947;-85
2022/08/23 14:59:53;;;;;;;;;;;;;;;;;;6232187;23;19919;-85
2022/08/23 15:02:19;;;;;;;;;;;;;;;;;;6227187;23;19923;-84
2022/08/23 15:04:45;;;;;;;;;;;;;;;;;;6226194;23;20516;-85
2022/08/23 15:07:11;;;;;;;;;;;;;;;;;;6232455;23;19915;-85
2022/08/23 15:09:37;;;;;;;;;;;;;;;;;;6227397;23;20292;-85
2022/08/23 15:12:05;;;;;;;;;;;;;;;;;;6228529;23;19935;-85
2022/08/23 15:14:31;;;;;;;;;;;;;;;;;;6226031;22;20255;-85
2022/08/23 15:16:58;;;;;;;;;;;;;;;;;;6230403;22;19915;-86
2022/08/23 15:19:26;;;;;;;;;;;;;;;;;;6232529;22;19919;-86
2022/08/23 15:21:52;;;;;;;;;;;;;;;;;;6206385;22;19926;-85
2022/08/23 15:24:18;;;;;;;;;;;;;;;;;;6227089;22;20417;-85
2022/08/23 15:26:44;;;;;;;;;;;;;;;;;;6254824;22;20701;-85
2022/08/23 15:29:10;;;;;;;;;;;;;;;;;;6259589;22;20248;-85
2022/08/23 15:31:36;;;;;;;;;;;;;;;;;;6256594;22;20016;-85
2022/08/23 15:34:02;;;;;;;;;;;;;;;;;;6208269;22;19919;-85
2022/08/23 15:36:30;;;;;;;;;;;;;;;;;;6229280;22;20329;-85
2022/08/23 15:38:56;;;;;;;;;;;;;;;;;;6204446;22;19933;-85
2022/08/23 15:41:21;;;;;;;;;;;;;;;;;;6231194;22;19923;-85
2022/08/23 15:43:47;;;;;;;;;;;;;;;;;;6205584;22;19927;-85
2022/08/23 15:46:13;;;;;;;;;;;;;;;;;;6230523;22;19919;-85
2022/08/23 15:48:39;;;;;;;;;;;;;;;;;;6224871;22;19923;-85
2022/08/23 15:51:08;;;;;;;;;;;;;;;;;;6206338;22;19919;-85
2022/08/23 15:53:34;;;;;;;;;;;;;;;;;;6204135;22;19919;-85
2022/08/23 15:56:00;;;;;;;;;;;;;;;;;;6206284;22;20800;-86
2022/08/23 15:58:26;;;;;;;;;;;;;;;;;;6228243;22;19919;-85
2022/08/23 16:00:52;;;;;;;;;;;;;;;;;;6232014;22;20168;-85
2022/08/23 16:03:21;;;;;;;;;;;;;;;;;;6205325;22;19934;-85
2022/08/23 16:05:47;;;;;;;;;;;;;;;;;;6204634;22;19915;-85
2022/08/23 16:08:13;;;;;;;;;;;;;;;;;;6201246;22;19986;-86
2022/08/23 16:10:41;;;;;;;;;;;;;;;;;;6229971;22;20199;-85
2022/08/23 16:13:10;;;;;;;;;;;;;;;;;;6205228;22;19919;-85
2022/08/23 16:15:36;;;;;;;;;;;;;;;;;;6230699;22;20639;-85
2022/08/23 16:18:02;;;;;;;;;;;;;;;;;;6225889;23;19959;-85
2022/08/23 16:20:28;;;;;;;;;;;;;;;;;;6196175;23;19970;-85
2022/08/23 16:22:54;;;;;;;;;;;;;;;;;;6223767;23;19924;-85
2022/08/23 16:25:20;;;;;;;;;;;;;;;;;;6198697;23;19916;-85
2022/08/23 16:27:46;;;;;;;;;;;;;;;;;;6223892;23;19919;-85
2022/08/23 16:30:12;;;;;;;;;;;;;;;;;;6228405;23;19919;-85
2022/08/23 16:32:38;;;;;;;;;;;;;;;;;;6224843;23;19966;-86
2022/08/23 16:35:04;;;;;;;;;;;;;;;;;;6225223;23;20340;-85
2022/08/23 16:37:30;;;;;;;;;;;;;;;;;;6199002;23;19919;-85
2022/08/23 16:39:56;;;;;;;;;;;;;;;;;;6201222;23;19915;-85
2022/08/23 16:42:22;;;;;;;;;;;;;;;;;;6201273;23;19927;-85
2022/08/23 16:44:48;;;;;;;;;;;;;;;;;;6225710;23;19923;-85
2022/08/23 16:47:14;;;;;;;;;;;;;;;;;;6202066;23;20434;-85
2022/08/23 16:49:41;;;;;;;;;;;;;;;;;;6223349;23;19969;-85
2022/08/23 16:52:09;;;;;;;;;;;;;;;;;;6200254;23;19923;-85
2022/08/23 16:54:35;;;;;;;;;;;;;;;;;;6197445;23;19919;-85
2022/08/23 16:57:01;;;;;;;;;;;;;;;;;;6227836;23;19926;-85
2022/08/23 16:59:28;;;;;;;;;;;;;;;;;;6194132;23;20344;-86
2022/08/23 17:01:54;;;;;;;;;;;;;;;;;;6226827;23;19947;-83
2022/08/23 17:04:23;;;;;;;;;;;;;;;;;;6223120;23;20675;-85
2022/08/23 17:06:49;;;;;;;;;;;;;;;;;;6196350;23;19919;-85
2022/08/23 17:09:15;;;;;;;;;;;;;;;;;;6224814;23;19982;-85
2022/08/23 17:11:41;;;;;;;;;;;;;;;;;;6199188;23;19920;-85
2022/08/23 17:14:07;;;;;;;;;;;;;;;;;;6230768;22;19927;-86
2022/08/23 17:16:33;;;;;;;;;;;;;;;;;;6225685;22;19987;-85
2022/08/23 17:18:59;;;;;;;;;;;;;;;;;;6226057;23;19919;-86